Pride Of Bruges — PGJW — position and weather

sailwx.info

Track history (hours):
 
Tides and Currents Weather Stations Pressure Air Temp Water Temp Dewpoint Dewpoint Depression Visibility Wind Speed Wind Dir Waves Ship Positions

Pride Of Bruges

Operator: P&O Ferries

Last reported at 2017-Apr-30 14:30 UTC. Time now 2017-Apr-30 14:50 UTC.
Position N 53°45' W 000°16'.

Length 180 m; draft 5.8 m.

Type: Ship (hazmat cat B). MMSI: 244387000.

Date/timePositionNaut miles runAvg speedWind from/ knotsBaromVisibWave heightAir tempDewpointWater temp
2017-Apr-30 14:30N 53°45' W 000°16'0 0.0
2017-Apr-30 13:30N 53°45' W 000°16'0 0.0
2017-Apr-30 13:00N 53°45' W 000°16'0 0.0
2017-Apr-30 12:30N 53°45' W 000°16'0 0.0
2017-Apr-30 12:00N 53°45' W 000°16'0 0.0
2017-Apr-30 11:30N 53°45' W 000°16'0 0.0
2017-Apr-30 11:00N 53°45' W 000°16'0 0.0
2017-Apr-30 10:30N 53°45' W 000°16'0 0.0
2017-Apr-30 10:00N 53°45' W 000°16'0 0.0
2017-Apr-30 09:30N 53°45' W 000°16'0 0.0
2017-Apr-30 09:01N 53°45' W 000°16'0 0.0
2017-Apr-30 08:31N 53°45' W 000°16'0 0.0
2017-Apr-30 08:00N 53°45' W 000°16'0 0.1
2017-Apr-30 07:30N 53°45' W 000°16'0 0.5
2017-Apr-30 07:00N 53°44' W 000°16'611.2
2017-Apr-30 06:30N 53°39' W 000°12'815.3
2017-Apr-30 06:00N 53°35' W 000°01'816.2
2017-Apr-30 05:30N 53°33' E 000°12'2613.4
2017-Apr-30 03:31N 53°22' E 000°53'013.9
2017-Apr-30 03:30N 53°22' E 000°53'714.2
2017-Apr-30 03:00N 53°18' E 001°03'714.4
2017-Apr-30 02:30N 53°13' E 001°11'815.4
2017-Apr-30 02:00N 53°07' E 001°20'816.4
2017-Apr-30 01:30N 53°01' E 001°29'815.9
2017-Apr-30 01:00N 52°55' E 001°38'714.7
2017-Apr-30 00:30N 52°50' E 001°47'714.3
2017-Apr-30 00:00N 52°47' E 001°57'713.4
2017-Apr-29 23:30N 52°41' E 002°02'713.1
2017-Apr-29 23:00N 52°35' E 002°07'2613.4
2017-Apr-29 21:06N 52°11' E 002°23'214.6
2017-Apr-29 20:58N 52°09' E 002°24'715.1
2017-Apr-29 20:30N 52°03' E 002°28'916.6
2017-Apr-29 19:57N 51°55' E 002°35'916.9
2017-Apr-29 19:24N 51°46' E 002°40'717.1
2017-Apr-29 19:00N 51°39' E 002°42'817.0
2017-Apr-29 18:30N 51°32' E 002°50'917.1
2017-Apr-29 18:01N 51°26' E 002°59'714.6
2017-Apr-29 17:30N 51°23' E 003°10'3 5.4
2017-Apr-29 17:01N 51°20' E 003°11'0 0.0
2017-Apr-29 16:30N 51°20' E 003°11'0 0.0
2017-Apr-29 16:00N 51°20' E 003°11'0 0.0
2017-Apr-29 15:30N 51°20' E 003°11'0 0.0
2017-Apr-29 15:00N 51°20' E 003°11'0 0.0
2017-Apr-29 13:59N 51°20' E 003°11'0 0.0
2017-Apr-29 13:29N 51°20' E 003°11'0 0.0
2017-Apr-29 12:59N 51°20' E 003°11'0 0.0
2017-Apr-29 12:29N 51°20' E 003°11'0 0.0
2017-Apr-29 11:59N 51°20' E 003°11'0 0.0
2017-Apr-29 11:28N 51°20' E 003°11'0 0.0
2017-Apr-29 10:58N 51°20' E 003°11'0 0.0
2017-Apr-29 10:28N 51°20' E 003°11'0 0.0
2017-Apr-29 09:58N 51°20' E 003°11'0 0.0
2017-Apr-29 09:30N 51°20' E 003°11'0 0.0
2017-Apr-29 09:00N 51°20' E 003°11'0 0.0
2017-Apr-29 08:30N 51°20' E 003°11'0 0.0
2017-Apr-29 08:00N 51°20' E 003°11'0 0.0
2017-Apr-29 07:30N 51°20' E 003°11'1 2.2
2017-Apr-29 07:01N 51°21' E 003°12'713.6
2017-Apr-29 06:30N 51°25' E 003°02'714.0
2017-Apr-29 06:00N 51°29' E 002°54'714.6
2017-Apr-29 05:30N 51°35' E 002°48'5414.7
2017-Apr-29 01:48N 52°25' E 002°11'514.5
2017-Apr-29 01:27N 52°29' E 002°07'714.6
2017-Apr-29 01:00N 52°35' E 002°02'714.5
2017-Apr-29 00:30N 52°42' E 001°57'714.7
2017-Apr-29 00:00N 52°47' E 001°48'815.5
2017-Apr-28 23:30N 52°51' E 001°38'815.5
2017-Apr-28 23:00N 52°56' E 001°27'816.0
2017-Apr-28 22:30N 52°59' E 001°16'816.2
2017-Apr-28 22:00N 53°03' E 001°04'816.5
2017-Apr-28 21:30N 53°09' E 000°54'3716.0
2017-Apr-28 19:12N 53°33' E 000°07'315.9
2017-Apr-28 18:59N 53°35' E 000°02'713.7
2017-Apr-28 18:30N 53°38' W 000°08'612.9
2017-Apr-28 18:00N 53°43' W 000°14'2 4.0
2017-Apr-28 17:30N 53°44' W 000°16'0 0.2
2017-Apr-28 17:00N 53°45' W 000°16'0 0.0
2017-Apr-28 16:30N 53°45' W 000°16'0 0.0
2017-Apr-28 16:00N 53°45' W 000°16'0 0.0
2017-Apr-28 15:29N 53°45' W 000°16'0 0.0
2017-Apr-28 14:59N 53°45' W 000°16'0 0.0
2017-Apr-28 13:59N 53°45' W 000°16'0 0.0
2017-Apr-28 13:29N 53°45' W 000°16'0 0.0
2017-Apr-28 12:59N 53°45' W 000°16'0 0.0
2017-Apr-28 12:28N 53°45' W 000°16'0 0.0
2017-Apr-28 11:58N 53°45' W 000°16'0 0.0
2017-Apr-28 11:28N 53°45' W 000°16'0 0.0
2017-Apr-28 11:00N 53°45' W 000°16'0 0.0
2017-Apr-28 10:30N 53°45' W 000°16'0 0.0
2017-Apr-28 10:00N 53°45' W 000°16'0 0.0
2017-Apr-28 09:30N 53°45' W 000°16'0 0.0
2017-Apr-28 09:00N 53°45' W 000°16'0 0.0
2017-Apr-28 08:29N 53°45' W 000°16'0 0.0
2017-Apr-28 07:59N 53°45' W 000°16'0 0.0
2017-Apr-28 07:29N 53°45' W 000°16'0 0.4
2017-Apr-28 07:00N 53°45' W 000°16'1 1.1
2017-Apr-28 06:30N 53°44' W 000°16'714.3
2017-Apr-28 06:00N 53°38' W 000°09'917.4
2017-Apr-28 05:30N 53°35' E 000°05'3613.8
2017-Apr-28 02:53N 53°20' E 000°60'615.3
2017-Apr-28 02:31N 53°16' E 001°06'816.4
2017-Apr-28 02:01N 53°09' E 001°15'917.6
2017-Apr-28 01:31N 53°03' E 001°25'917.9
2017-Apr-28 01:01N 52°56' E 001°35'917.6
2017-Apr-28 00:31N 52°49' E 001°44'816.3
2017-Apr-28 00:00N 52°44' E 001°55'815.7
2017-Apr-27 23:30N 52°38' E 002°02'6014.6
2017-Apr-27 19:24N 51°43' E 002°41'615.3
2017-Apr-27 19:00N 51°37' E 002°45'816.0
2017-Apr-27 18:30N 51°31' E 002°53'816.2
2017-Apr-27 18:01N 51°25' E 003°02'815.7
2017-Apr-27 17:30N 51°21' E 003°12'1 1.9
2017-Apr-27 17:00N 51°20' E 003°11'0 0.0
2017-Apr-27 16:30N 51°20' E 003°11'0 0.0
2017-Apr-27 16:00N 51°20' E 003°11'0 0.0
2017-Apr-27 15:30N 51°20' E 003°11'0 0.0
2017-Apr-27 14:59N 51°20' E 003°11'0 0.0
2017-Apr-27 13:59N 51°20' E 003°11'0 0.0
2017-Apr-27 13:29N 51°20' E 003°11'0 0.0
2017-Apr-27 12:59N 51°20' E 003°11'0 0.0
2017-Apr-27 12:28N 51°20' E 003°11'0 0.0
2017-Apr-27 11:58N 51°20' E 003°11'0 0.0
2017-Apr-27 11:28N 51°20' E 003°11'0 0.0
2017-Apr-27 10:58N 51°20' E 003°11'0 0.0
2017-Apr-27 10:30N 51°20' E 003°11'0 0.0
2017-Apr-27 10:00N 51°20' E 003°11'0 0.0
2017-Apr-27 09:30N 51°20' E 003°11'0 0.1
2017-Apr-27 09:00N 51°20' E 003°11'0 0.1
2017-Apr-27 08:30N 51°20' E 003°11'0 0.0
2017-Apr-27 07:59N 51°20' E 003°11'0 0.0
2017-Apr-27 07:29N 51°20' E 003°11'0 0.0
2017-Apr-27 06:59N 51°20' E 003°11'2 3.7
2017-Apr-27 06:30N 51°22' E 003°11'713.4
2017-Apr-27 06:00N 51°25' E 003°01'713.9
2017-Apr-27 05:31N 51°30' E 002°54'714.1
2017-Apr-27 05:01N 51°35' E 002°47'6214.1
2017-Apr-27 00:36N 52°32' E 002°05'115.0
2017-Apr-27 00:30N 52°34' E 002°04'714.9
2017-Apr-27 00:00N 52°40' E 001°59'815.4
2017-Apr-26 23:30N 52°46' E 001°51'817.0
2017-Apr-26 23:00N 52°52' E 001°41'917.0
2017-Apr-26 22:30N 52°59' E 001°31'917.5
2017-Apr-26 22:00N 53°05' E 001°22'917.5
2017-Apr-26 21:30N 53°12' E 001°12'917.5
2017-Apr-26 21:00N 53°18' E 001°02'3916.9
2017-Apr-26 18:42N 53°35' E 000°03'317.0
2017-Apr-26 18:30N 53°36' W 000°02'815.7
2017-Apr-26 18:00N 53°41' W 000°13'4 8.3
2017-Apr-26 17:28N 53°45' W 000°16'0 0.3
2017-Apr-26 16:58N 53°45' W 000°16'0 0.0
2017-Apr-26 16:28N 53°45' W 000°16'0 0.0
2017-Apr-26 15:58N 53°45' W 000°16'0 0.0
2017-Apr-26 15:30N 53°45' W 000°16'0 0.0
2017-Apr-26 15:00N 53°45' W 000°16'0 0.0
2017-Apr-26 14:00N 53°45' W 000°16'0 0.0
2017-Apr-26 13:29N 53°45' W 000°16'0 0.0
2017-Apr-26 12:56N 53°45' W 000°16'0 0.0
2017-Apr-26 12:29N 53°45' W 000°16'0 0.0
2017-Apr-26 11:59N 53°45' W 000°16'0 0.0
2017-Apr-26 11:29N 53°45' W 000°16'0 0.0
2017-Apr-26 10:58N 53°45' W 000°16'0 0.0
2017-Apr-26 10:28N 53°45' W 000°16'0 0.0
2017-Apr-26 09:58N 53°45' W 000°16'0 0.0
2017-Apr-26 09:28N 53°45' W 000°16'0 0.0
2017-Apr-26 09:01N 53°45' W 000°16'0 0.0
2017-Apr-26 08:30N 53°45' W 000°16'0 0.0
2017-Apr-26 08:00N 53°45' W 000°16'0 0.0
2017-Apr-26 07:30N 53°45' W 000°16'0 0.2
2017-Apr-26 07:00N 53°44' W 000°16'0 0.4
2017-Apr-26 06:30N 53°44' W 000°16'713.2
2017-Apr-26 06:00N 53°39' W 000°10'816.0
2017-Apr-26 05:30N 53°35' E 000°02'815.1
2017-Apr-26 05:00N 53°33' E 000°14'3313.7
2017-Apr-26 02:35N 53°17' E 001°03'115.0
2017-Apr-26 02:29N 53°16' E 001°05'816.0
2017-Apr-26 02:01N 53°11' E 001°13'917.2
2017-Apr-26 01:31N 53°04' E 001°23'918.0
2017-Apr-26 01:01N 52°58' E 001°34'918.2
2017-Apr-26 00:31N 52°52' E 001°45'917.4
2017-Apr-26 00:00N 52°46' E 001°56'817.0
2017-Apr-25 23:30N 52°39' E 002°03'6514.1
2017-Apr-25 18:55N 51°39' E 002°44'614.4
2017-Apr-25 18:30N 51°34' E 002°49'815.3
2017-Apr-25 18:00N 51°28' E 002°57'815.7
2017-Apr-25 17:31N 51°24' E 003°07'4 8.4
2017-Apr-25 17:00N 51°20' E 003°11'0 0.1
2017-Apr-25 16:30N 51°20' E 003°11'0 0.0
2017-Apr-25 16:00N 51°20' E 003°11'0 0.0
2017-Apr-25 15:30N 51°20' E 003°11'0 0.0
2017-Apr-25 14:59N 51°20' E 003°11'0 0.0
2017-Apr-25 13:59N 51°20' E 003°11'0 0.0
2017-Apr-25 13:29N 51°20' E 003°11'0 0.0
2017-Apr-25 12:59N 51°20' E 003°11'0 0.0
2017-Apr-25 12:28N 51°20' E 003°11'0 0.0
2017-Apr-25 11:58N 51°20' E 003°11'0 0.0
2017-Apr-25 11:28N 51°20' E 003°11'0 0.0
2017-Apr-25 10:58N 51°20' E 003°11'0 0.0
2017-Apr-25 10:30N 51°20' E 003°11'0 0.0
2017-Apr-25 10:00N 51°20' E 003°11'0 0.0
2017-Apr-25 09:30N 51°20' E 003°11'0 0.0
2017-Apr-25 09:00N 51°20' E 003°11'0 0.0
2017-Apr-25 08:30N 51°20' E 003°11'0 0.0
2017-Apr-25 07:59N 51°20' E 003°11'0 0.0
2017-Apr-25 07:29N 51°20' E 003°11'0 0.0
2017-Apr-25 07:00N 51°20' E 003°11'2 3.2
2017-Apr-25 06:31N 51°22' E 003°11'714.3
2017-Apr-25 06:01N 51°25' E 003°01'714.8
2017-Apr-25 05:31N 51°30' E 002°53'714.7
2017-Apr-25 05:01N 51°36' E 002°46'714.3
2017-Apr-25 04:30N 51°43' E 002°42'714.5
2017-Apr-25 04:00N 51°50' E 002°40'4515.7
2017-Apr-25 01:09N 52°31' E 002°09'215.5
2017-Apr-25 01:00N 52°33' E 002°07'815.2
2017-Apr-25 00:31N 52°40' E 002°02'815.1
2017-Apr-25 00:01N 52°46' E 001°56'815.7
2017-Apr-24 23:31N 52°51' E 001°45'815.8
2017-Apr-24 23:01N 52°56' E 001°35'816.0
2017-Apr-24 22:31N 53°01' E 001°26'816.5
2017-Apr-24 22:01N 53°08' E 001°17'816.5
2017-Apr-24 21:31N 53°14' E 001°08'3416.3
2017-Apr-24 19:26N 53°30' E 000°18'716.2
2017-Apr-24 18:59N 53°33' E 000°07'918.9
2017-Apr-24 18:31N 53°37' W 000°06'816.1
2017-Apr-24 18:00N 53°43' W 000°15'1 2.4
2017-Apr-24 17:30N 53°44' W 000°16'0 0.2
2017-Apr-24 17:00N 53°45' W 000°16'0 0.0
2017-Apr-24 16:29N 53°45' W 000°16'0 0.0
2017-Apr-24 15:59N 53°45' W 000°16'0 0.0
2017-Apr-24 15:29N 53°45' W 000°16'0 0.0
2017-Apr-24 14:59N 53°45' W 000°16'0 0.0
2017-Apr-24 14:29N 53°45' W 000°16'0 0.0
2017-Apr-24 13:28N 53°45' W 000°16'0 0.0
2017-Apr-24 12:58N 53°45' W 000°16'0 0.0
2017-Apr-24 12:28N 53°45' W 000°16'0 0.0
2017-Apr-24 12:00N 53°45' W 000°16'0 0.0
2017-Apr-24 11:30N 53°45' W 000°16'0 0.0
2017-Apr-24 11:00N 53°45' W 000°16'0 0.0
2017-Apr-24 10:30N 53°45' W 000°16'0 0.0
2017-Apr-24 10:00N 53°45' W 000°16'0 0.0
2017-Apr-24 09:29N 53°45' W 000°16'0 0.0
2017-Apr-24 08:59N 53°45' W 000°16'0 0.0
2017-Apr-24 08:29N 53°45' W 000°16'0 0.0
2017-Apr-24 07:59N 53°45' W 000°16'0 0.0
2017-Apr-24 07:30N 53°45' W 000°16'0 0.2
2017-Apr-24 07:00N 53°44' W 000°16'0 0.3
2017-Apr-24 06:30N 53°44' W 000°17'510.6
2017-Apr-24 06:00N 53°40' W 000°12'714.1
2017-Apr-24 05:30N 53°36' W 000°02'814.9
2017-Apr-24 04:58N 53°33' E 000°10'3215.0
2017-Apr-24 02:48N 53°20' E 001°00'414.9
2017-Apr-24 02:30N 53°16' E 001°05'712.7
2017-Apr-24 01:58N 53°11' E 001°13'612.0
2017-Apr-24 01:31N 53°07' E 001°19'612.9
2017-Apr-24 01:01N 53°02' E 001°26'613.0
2017-Apr-24 00:31N 52°58' E 001°34'816.3
2017-Apr-24 00:00N 52°52' E 001°43'816.7
2017-Apr-23 23:30N 52°48' E 001°56'815.0
2017-Apr-23 23:00N 52°41' E 002°01'917.1
2017-Apr-23 22:30N 52°34' E 002°07'4715.1
2017-Apr-23 19:22N 51°50' E 002°38'514.5
2017-Apr-23 19:00N 51°45' E 002°41'714.3
2017-Apr-23 18:30N 51°39' E 002°44'714.7
2017-Apr-23 18:00N 51°32' E 002°51'714.9
2017-Apr-23 17:30N 51°27' E 002°58'815.6
2017-Apr-23 17:00N 51°23' E 003°10'3 5.9
2017-Apr-23 16:30N 51°20' E 003°11'0 0.0
2017-Apr-23 16:00N 51°20' E 003°11'0 0.0
2017-Apr-23 15:30N 51°20' E 003°11'0 0.0
2017-Apr-23 15:00N 51°20' E 003°11'0 0.0
2017-Apr-23 14:00N 51°20' E 003°11'0 0.0
2017-Apr-23 13:29N 51°20' E 003°11'0 0.0
2017-Apr-23 12:59N 51°20' E 003°11'0 0.0
2017-Apr-23 12:29N 51°20' E 003°11'0 0.0
2017-Apr-23 11:59N 51°20' E 003°11'0 0.0
2017-Apr-23 11:29N 51°20' E 003°11'0 0.0
2017-Apr-23 10:58N 51°20' E 003°11'0 0.0
2017-Apr-23 10:28N 51°20' E 003°11'0 0.0
2017-Apr-23 09:58N 51°20' E 003°11'0 0.0
2017-Apr-23 09:28N 51°20' E 003°11'0 0.0
2017-Apr-23 09:00N 51°20' E 003°11'0 0.0
2017-Apr-23 08:30N 51°20' E 003°11'0 0.0
2017-Apr-23 08:00N 51°20' E 003°11'0 0.0
2017-Apr-23 07:30N 51°20' E 003°11'1 1.9
2017-Apr-23 07:00N 51°21' E 003°12'714.7
2017-Apr-23 06:30N 51°25' E 003°02'714.8
2017-Apr-23 06:00N 51°30' E 002°54'815.0
2017-Apr-23 05:30N 51°36' E 002°46'6014.9
2017-Apr-23 01:27N 52°31' E 002°08'714.8
2017-Apr-23 01:00N 52°37' E 002°03'714.6
2017-Apr-23 00:30N 52°44' E 001°57'714.5
2017-Apr-23 00:00N 52°49' E 001°49'714.8
2017-Apr-22 23:30N 52°54' E 001°39'714.7
2017-Apr-22 23:00N 52°59' E 001°31'715.0
2017-Apr-22 22:30N 53°05' E 001°23'815.2
2017-Apr-22 22:00N 53°11' E 001°15'815.1
2017-Apr-22 21:30N 53°16' E 001°06'815.1
2017-Apr-22 20:59N 53°21' E 000°56'2515.5
2017-Apr-22 19:23N 53°31' E 000°18'916.0
2017-Apr-22 18:50N 53°34' E 000°04'617.5
2017-Apr-22 18:30N 53°36' W 000°05'714.0
2017-Apr-22 18:00N 53°41' W 000°13'4 7.6
2017-Apr-22 17:30N 53°44' W 000°16'0 0.2
2017-Apr-22 17:00N 53°45' W 000°16'0 0.0
2017-Apr-22 16:30N 53°45' W 000°16'0 0.0
2017-Apr-22 15:59N 53°45' W 000°16'0 0.0
2017-Apr-22 15:29N 53°45' W 000°16'0 0.0
2017-Apr-22 14:59N 53°45' W 000°16'0 0.0
2017-Apr-22 14:29N 53°45' W 000°16'0 0.0
2017-Apr-22 13:28N 53°45' W 000°16'0 0.0
2017-Apr-22 12:58N 53°45' W 000°16'0 0.0
2017-Apr-22 12:28N 53°45' W 000°16'0 0.0
2017-Apr-22 11:58N 53°45' W 000°16'0 0.0
2017-Apr-22 11:30N 53°45' W 000°16'0 0.0
2017-Apr-22 11:00N 53°45' W 000°16'0 0.0
2017-Apr-22 10:30N 53°45' W 000°16'0 0.0
2017-Apr-22 10:00N 53°45' W 000°16'0 0.0
2017-Apr-22 09:30N 53°45' W 000°16'0 0.0
2017-Apr-22 08:59N 53°45' W 000°16'0 0.0
2017-Apr-22 08:29N 53°45' W 000°16'0 0.0
2017-Apr-22 08:00N 53°45' W 000°16'0 0.2
2017-Apr-22 07:30N 53°44' W 000°16'0 0.4
2017-Apr-22 07:00N 53°44' W 000°16'4 7.6
2017-Apr-22 06:30N 53°41' W 000°13'510.3
2017-Apr-22 06:00N 53°37' W 000°07'713.4
2017-Apr-22 05:30N 53°35' E 000°03'713.3
2017-Apr-22 05:00N 53°33' E 000°14'3414.2
2017-Apr-22 02:37N 53°17' E 001°04'214.2
2017-Apr-22 02:30N 53°16' E 001°06'714.5
2017-Apr-22 02:00N 53°11' E 001°14'714.9
2017-Apr-22 01:30N 53°05' E 001°22'816.1
2017-Apr-22 01:00N 52°59' E 001°31'918.2
2017-Apr-22 00:30N 52°52' E 001°41'918.7
2017-Apr-22 00:01N 52°46' E 001°53'918.9
2017-Apr-21 23:30N 52°38' E 002°02'4418.6
2017-Apr-21 21:09N 51°59' E 002°32'318.2
2017-Apr-21 21:00N 51°56' E 002°34'918.2
2017-Apr-21 20:30N 51°48' E 002°40'918.1
2017-Apr-21 20:01N 51°39' E 002°44'917.8
2017-Apr-21 19:31N 51°32' E 002°52'917.5
2017-Apr-21 19:01N 51°25' E 003°01'815.8
2017-Apr-21 18:30N 51°21' E 003°12'1 2.2
2017-Apr-21 18:00N 51°20' E 003°11'0 0.0
2017-Apr-21 17:30N 51°20' E 003°11'0 0.0
2017-Apr-21 17:00N 51°20' E 003°11'0 0.0
2017-Apr-21 16:29N 51°20' E 003°11'0 0.0
2017-Apr-21 15:59N 51°20' E 003°11'0 0.0
2017-Apr-21 15:29N 51°20' E 003°11'0 0.0
2017-Apr-21 14:58N 51°20' E 003°11'0 0.0
2017-Apr-21 14:28N 51°20' E 003°11'0 0.0
2017-Apr-21 13:28N 51°20' E 003°11'0 0.0
2017-Apr-21 12:58N 51°20' E 003°11'0 0.0
2017-Apr-21 12:30N 51°20' E 003°11'0 0.0
2017-Apr-21 12:00N 51°20' E 003°11'0 0.0
2017-Apr-21 11:30N 51°20' E 003°11'0 0.0
2017-Apr-21 11:00N 51°20' E 003°11'0 0.0
2017-Apr-21 10:30N 51°20' E 003°11'0 0.0
2017-Apr-21 09:59N 51°20' E 003°11'0 0.0
2017-Apr-21 09:29N 51°20' E 003°11'0 0.0
2017-Apr-21 08:59N 51°20' E 003°11'0 0.0
2017-Apr-21 08:29N 51°20' E 003°11'0 0.0
2017-Apr-21 07:55N 51°20' E 003°11'0 0.0
2017-Apr-21 07:28N 51°20' E 003°11'0 0.0
2017-Apr-21 06:58N 51°20' E 003°11'1 2.9
2017-Apr-21 06:31N 51°22' E 003°12'816.6
2017-Apr-21 06:01N 51°26' E 002°60'816.0
2017-Apr-21 05:30N 51°32' E 002°52'815.8
2017-Apr-21 05:01N 51°38' E 002°44'915.9
2017-Apr-21 04:25N 51°47' E 002°39'4616.4
2017-Apr-21 01:37N 52°29' E 002°10'216.8
2017-Apr-21 01:30N 52°31' E 002°09'816.5
2017-Apr-21 01:00N 52°38' E 002°02'816.1
2017-Apr-21 00:30N 52°45' E 001°55'816.8
2017-Apr-21 00:00N 52°50' E 001°43'816.9
2017-Apr-20 23:30N 52°54' E 001°32'816.8
2017-Apr-20 23:00N 52°58' E 001°19'816.5
2017-Apr-20 22:30N 53°01' E 001°07'816.4
2017-Apr-20 22:00N 53°07' E 000°57'3216.3
2017-Apr-20 20:03N 53°30' E 000°20'115.9
2017-Apr-20 19:59N 53°31' E 000°18'715.4
2017-Apr-20 19:30N 53°33' E 000°07'815.9
2017-Apr-20 19:00N 53°37' W 000°06'612.3
2017-Apr-20 18:30N 53°41' W 000°13'4 7.9
2017-Apr-20 18:00N 53°44' W 000°16'0 0.3
2017-Apr-20 17:30N 53°45' W 000°16'0 0.3
2017-Apr-20 17:00N 53°45' W 000°16'0 0.0
2017-Apr-20 16:30N 53°45' W 000°16'0 0.0
2017-Apr-20 16:00N 53°45' W 000°16'0 0.0
2017-Apr-20 15:29N 53°45' W 000°16'0 0.0
2017-Apr-20 14:59N 53°45' W 000°16'  
Track history (hours):
 
Tides and Currents Weather Stations Pressure Air Temp Water Temp Dewpoint Dewpoint Depression Visibility Wind Speed Wind Dir Waves Ship Positions

Pride Of Bruges

Operator: P&O Ferries

Last reported at 2017-Apr-30 14:30 UTC. Time now 2017-Apr-30 14:50 UTC.
Position N 53°45' W 000°16'.

Length 180 m; draft 5.8 m.

Type: Ship (hazmat cat B). MMSI: 244387000.

Date/timePositionNaut miles runAvg speedWind from/ knotsBaromVisibWave heightAir tempDewpointWater temp
2017-Apr-30 14:30N 53°45' W 000°16'0 0.0
2017-Apr-30 13:30N 53°45' W 000°16'0 0.0
2017-Apr-30 13:00N 53°45' W 000°16'0 0.0
2017-Apr-30 12:30N 53°45' W 000°16'0 0.0
2017-Apr-30 12:00N 53°45' W 000°16'0 0.0
2017-Apr-30 11:30N 53°45' W 000°16'0 0.0
2017-Apr-30 11:00N 53°45' W 000°16'0 0.0
2017-Apr-30 10:30N 53°45' W 000°16'0 0.0
2017-Apr-30 10:00N 53°45' W 000°16'0 0.0
2017-Apr-30 09:30N 53°45' W 000°16'0 0.0
2017-Apr-30 09:01N 53°45' W 000°16'0 0.0
2017-Apr-30 08:31N 53°45' W 000°16'0 0.0
2017-Apr-30 08:00N 53°45' W 000°16'0 0.1
2017-Apr-30 07:30N 53°45' W 000°16'0 0.5
2017-Apr-30 07:00N 53°44' W 000°16'611.2
2017-Apr-30 06:30N 53°39' W 000°12'815.3
2017-Apr-30 06:00N 53°35' W 000°01'816.2
2017-Apr-30 05:30N 53°33' E 000°12'2613.4
2017-Apr-30 03:31N 53°22' E 000°53'013.9
2017-Apr-30 03:30N 53°22' E 000°53'714.2
2017-Apr-30 03:00N 53°18' E 001°03'714.4
2017-Apr-30 02:30N 53°13' E 001°11'815.4
2017-Apr-30 02:00N 53°07' E 001°20'816.4
2017-Apr-30 01:30N 53°01' E 001°29'815.9
2017-Apr-30 01:00N 52°55' E 001°38'714.7
2017-Apr-30 00:30N 52°50' E 001°47'714.3
2017-Apr-30 00:00N 52°47' E 001°57'713.4
2017-Apr-29 23:30N 52°41' E 002°02'713.1
2017-Apr-29 23:00N 52°35' E 002°07'2613.4
2017-Apr-29 21:06N 52°11' E 002°23'214.6
2017-Apr-29 20:58N 52°09' E 002°24'715.1
2017-Apr-29 20:30N 52°03' E 002°28'916.6
2017-Apr-29 19:57N 51°55' E 002°35'916.9
2017-Apr-29 19:24N 51°46' E 002°40'717.1
2017-Apr-29 19:00N 51°39' E 002°42'817.0
2017-Apr-29 18:30N 51°32' E 002°50'917.1
2017-Apr-29 18:01N 51°26' E 002°59'714.6
2017-Apr-29 17:30N 51°23' E 003°10'3 5.4
2017-Apr-29 17:01N 51°20' E 003°11'0 0.0
2017-Apr-29 16:30N 51°20' E 003°11'0 0.0
2017-Apr-29 16:00N 51°20' E 003°11'0 0.0
2017-Apr-29 15:30N 51°20' E 003°11'0 0.0
2017-Apr-29 15:00N 51°20' E 003°11'0 0.0
2017-Apr-29 13:59N 51°20' E 003°11'0 0.0
2017-Apr-29 13:29N 51°20' E 003°11'0 0.0
2017-Apr-29 12:59N 51°20' E 003°11'0 0.0
2017-Apr-29 12:29N 51°20' E 003°11'0 0.0
2017-Apr-29 11:59N 51°20' E 003°11'0 0.0
2017-Apr-29 11:28N 51°20' E 003°11'0 0.0
2017-Apr-29 10:58N 51°20' E 003°11'0 0.0
2017-Apr-29 10:28N 51°20' E 003°11'0 0.0
2017-Apr-29 09:58N 51°20' E 003°11'0 0.0
2017-Apr-29 09:30N 51°20' E 003°11'0 0.0
2017-Apr-29 09:00N 51°20' E 003°11'0 0.0
2017-Apr-29 08:30N 51°20' E 003°11'0 0.0
2017-Apr-29 08:00N 51°20' E 003°11'0 0.0
2017-Apr-29 07:30N 51°20' E 003°11'1 2.2
2017-Apr-29 07:01N 51°21' E 003°12'713.6
2017-Apr-29 06:30N 51°25' E 003°02'714.0
2017-Apr-29 06:00N 51°29' E 002°54'714.6
2017-Apr-29 05:30N 51°35' E 002°48'5414.7
2017-Apr-29 01:48N 52°25' E 002°11'514.5
2017-Apr-29 01:27N 52°29' E 002°07'714.6
2017-Apr-29 01:00N 52°35' E 002°02'714.5
2017-Apr-29 00:30N 52°42' E 001°57'714.7
2017-Apr-29 00:00N 52°47' E 001°48'815.5
2017-Apr-28 23:30N 52°51' E 001°38'815.5
2017-Apr-28 23:00N 52°56' E 001°27'816.0
2017-Apr-28 22:30N 52°59' E 001°16'816.2
2017-Apr-28 22:00N 53°03' E 001°04'816.5
2017-Apr-28 21:30N 53°09' E 000°54'3716.0
2017-Apr-28 19:12N 53°33' E 000°07'315.9
2017-Apr-28 18:59N 53°35' E 000°02'713.7
2017-Apr-28 18:30N 53°38' W 000°08'612.9
2017-Apr-28 18:00N 53°43' W 000°14'2 4.0
2017-Apr-28 17:30N 53°44' W 000°16'0 0.2
2017-Apr-28 17:00N 53°45' W 000°16'0 0.0
2017-Apr-28 16:30N 53°45' W 000°16'0 0.0
2017-Apr-28 16:00N 53°45' W 000°16'0 0.0
2017-Apr-28 15:29N 53°45' W 000°16'0 0.0
2017-Apr-28 14:59N 53°45' W 000°16'0 0.0
2017-Apr-28 13:59N 53°45' W 000°16'0 0.0
2017-Apr-28 13:29N 53°45' W 000°16'0 0.0
2017-Apr-28 12:59N 53°45' W 000°16'0 0.0
2017-Apr-28 12:28N 53°45' W 000°16'0 0.0
2017-Apr-28 11:58N 53°45' W 000°16'0 0.0
2017-Apr-28 11:28N 53°45' W 000°16'0 0.0
2017-Apr-28 11:00N 53°45' W 000°16'0 0.0
2017-Apr-28 10:30N 53°45' W 000°16'0 0.0
2017-Apr-28 10:00N 53°45' W 000°16'0 0.0
2017-Apr-28 09:30N 53°45' W 000°16'0 0.0
2017-Apr-28 09:00N 53°45' W 000°16'0 0.0
2017-Apr-28 08:29N 53°45' W 000°16'0 0.0
2017-Apr-28 07:59N 53°45' W 000°16'0 0.0
2017-Apr-28 07:29N 53°45' W 000°16'0 0.4
2017-Apr-28 07:00N 53°45' W 000°16'1 1.1
2017-Apr-28 06:30N 53°44' W 000°16'714.3
2017-Apr-28 06:00N 53°38' W 000°09'917.4
2017-Apr-28 05:30N 53°35' E 000°05'3613.8
2017-Apr-28 02:53N 53°20' E 000°60'615.3
2017-Apr-28 02:31N 53°16' E 001°06'816.4
2017-Apr-28 02:01N 53°09' E 001°15'917.6
2017-Apr-28 01:31N 53°03' E 001°25'917.9
2017-Apr-28 01:01N 52°56' E 001°35'917.6
2017-Apr-28 00:31N 52°49' E 001°44'816.3
2017-Apr-28 00:00N 52°44' E 001°55'815.7
2017-Apr-27 23:30N 52°38' E 002°02'6014.6
2017-Apr-27 19:24N 51°43' E 002°41'615.3
2017-Apr-27 19:00N 51°37' E 002°45'816.0
2017-Apr-27 18:30N 51°31' E 002°53'816.2
2017-Apr-27 18:01N 51°25' E 003°02'815.7
2017-Apr-27 17:30N 51°21' E 003°12'1 1.9
2017-Apr-27 17:00N 51°20' E 003°11'0 0.0
2017-Apr-27 16:30N 51°20' E 003°11'0 0.0
2017-Apr-27 16:00N 51°20' E 003°11'0 0.0
2017-Apr-27 15:30N 51°20' E 003°11'0 0.0
2017-Apr-27 14:59N 51°20' E 003°11'0 0.0
2017-Apr-27 13:59N 51°20' E 003°11'0 0.0
2017-Apr-27 13:29N 51°20' E 003°11'0 0.0
2017-Apr-27 12:59N 51°20' E 003°11'0 0.0
2017-Apr-27 12:28N 51°20' E 003°11'0 0.0
2017-Apr-27 11:58N 51°20' E 003°11'0 0.0
2017-Apr-27 11:28N 51°20' E 003°11'0 0.0
2017-Apr-27 10:58N 51°20' E 003°11'0 0.0
2017-Apr-27 10:30N 51°20' E 003°11'0 0.0
2017-Apr-27 10:00N 51°20' E 003°11'0 0.0
2017-Apr-27 09:30N 51°20' E 003°11'0 0.1
2017-Apr-27 09:00N 51°20' E 003°11'0 0.1
2017-Apr-27 08:30N 51°20' E 003°11'0 0.0
2017-Apr-27 07:59N 51°20' E 003°11'0 0.0
2017-Apr-27 07:29N 51°20' E 003°11'0 0.0
2017-Apr-27 06:59N 51°20' E 003°11'2 3.7
2017-Apr-27 06:30N 51°22' E 003°11'713.4
2017-Apr-27 06:00N 51°25' E 003°01'713.9
2017-Apr-27 05:31N 51°30' E 002°54'714.1
2017-Apr-27 05:01N 51°35' E 002°47'6214.1
2017-Apr-27 00:36N 52°32' E 002°05'115.0
2017-Apr-27 00:30N 52°34' E 002°04'714.9
2017-Apr-27 00:00N 52°40' E 001°59'815.4
2017-Apr-26 23:30N 52°46' E 001°51'817.0
2017-Apr-26 23:00N 52°52' E 001°41'917.0
2017-Apr-26 22:30N 52°59' E 001°31'917.5
2017-Apr-26 22:00N 53°05' E 001°22'917.5
2017-Apr-26 21:30N 53°12' E 001°12'917.5
2017-Apr-26 21:00N 53°18' E 001°02'3916.9
2017-Apr-26 18:42N 53°35' E 000°03'317.0
2017-Apr-26 18:30N 53°36' W 000°02'815.7
2017-Apr-26 18:00N 53°41' W 000°13'4 8.3
2017-Apr-26 17:28N 53°45' W 000°16'0 0.3
2017-Apr-26 16:58N 53°45' W 000°16'0 0.0
2017-Apr-26 16:28N 53°45' W 000°16'0 0.0
2017-Apr-26 15:58N 53°45' W 000°16'0 0.0
2017-Apr-26 15:30N 53°45' W 000°16'0 0.0
2017-Apr-26 15:00N 53°45' W 000°16'0 0.0
2017-Apr-26 14:00N 53°45' W 000°16'0 0.0
2017-Apr-26 13:29N 53°45' W 000°16'0 0.0
2017-Apr-26 12:56N 53°45' W 000°16'0 0.0
2017-Apr-26 12:29N 53°45' W 000°16'0 0.0
2017-Apr-26 11:59N 53°45' W 000°16'0 0.0
2017-Apr-26 11:29N 53°45' W 000°16'0 0.0
2017-Apr-26 10:58N 53°45' W 000°16'0 0.0
2017-Apr-26 10:28N 53°45' W 000°16'0 0.0
2017-Apr-26 09:58N 53°45' W 000°16'0 0.0
2017-Apr-26 09:28N 53°45' W 000°16'0 0.0
2017-Apr-26 09:01N 53°45' W 000°16'0 0.0
2017-Apr-26 08:30N 53°45' W 000°16'0 0.0
2017-Apr-26 08:00N 53°45' W 000°16'0 0.0
2017-Apr-26 07:30N 53°45' W 000°16'0 0.2
2017-Apr-26 07:00N 53°44' W 000°16'0 0.4
2017-Apr-26 06:30N 53°44' W 000°16'713.2
2017-Apr-26 06:00N 53°39' W 000°10'816.0
2017-Apr-26 05:30N 53°35' E 000°02'815.1
2017-Apr-26 05:00N 53°33' E 000°14'3313.7
2017-Apr-26 02:35N 53°17' E 001°03'115.0
2017-Apr-26 02:29N 53°16' E 001°05'816.0
2017-Apr-26 02:01N 53°11' E 001°13'917.2
2017-Apr-26 01:31N 53°04' E 001°23'918.0
2017-Apr-26 01:01N 52°58' E 001°34'918.2
2017-Apr-26 00:31N 52°52' E 001°45'917.4
2017-Apr-26 00:00N 52°46' E 001°56'817.0
2017-Apr-25 23:30N 52°39' E 002°03'6514.1
2017-Apr-25 18:55N 51°39' E 002°44'614.4
2017-Apr-25 18:30N 51°34' E 002°49'815.3
2017-Apr-25 18:00N 51°28' E 002°57'815.7
2017-Apr-25 17:31N 51°24' E 003°07'4 8.4
2017-Apr-25 17:00N 51°20' E 003°11'0 0.1
2017-Apr-25 16:30N 51°20' E 003°11'0 0.0
2017-Apr-25 16:00N 51°20' E 003°11'0 0.0
2017-Apr-25 15:30N 51°20' E 003°11'0 0.0
2017-Apr-25 14:59N 51°20' E 003°11'0 0.0
2017-Apr-25 13:59N 51°20' E 003°11'0 0.0
2017-Apr-25 13:29N 51°20' E 003°11'0 0.0
2017-Apr-25 12:59N 51°20' E 003°11'0 0.0
2017-Apr-25 12:28N 51°20' E 003°11'0 0.0
2017-Apr-25 11:58N 51°20' E 003°11'0 0.0
2017-Apr-25 11:28N 51°20' E 003°11'0 0.0
2017-Apr-25 10:58N 51°20' E 003°11'0 0.0
2017-Apr-25 10:30N 51°20' E 003°11'0 0.0
2017-Apr-25 10:00N 51°20' E 003°11'0 0.0
2017-Apr-25 09:30N 51°20' E 003°11'0 0.0
2017-Apr-25 09:00N 51°20' E 003°11'0 0.0
2017-Apr-25 08:30N 51°20' E 003°11'0 0.0
2017-Apr-25 07:59N 51°20' E 003°11'0 0.0
2017-Apr-25 07:29N 51°20' E 003°11'0 0.0
2017-Apr-25 07:00N 51°20' E 003°11'2 3.2
2017-Apr-25 06:31N 51°22' E 003°11'714.3
2017-Apr-25 06:01N 51°25' E 003°01'714.8
2017-Apr-25 05:31N 51°30' E 002°53'714.7
2017-Apr-25 05:01N 51°36' E 002°46'714.3
2017-Apr-25 04:30N 51°43' E 002°42'714.5
2017-Apr-25 04:00N 51°50' E 002°40'4515.7
2017-Apr-25 01:09N 52°31' E 002°09'215.5
2017-Apr-25 01:00N 52°33' E 002°07'815.2
2017-Apr-25 00:31N 52°40' E 002°02'815.1
2017-Apr-25 00:01N 52°46' E 001°56'815.7
2017-Apr-24 23:31N 52°51' E 001°45'815.8
2017-Apr-24 23:01N 52°56' E 001°35'816.0
2017-Apr-24 22:31N 53°01' E 001°26'816.5
2017-Apr-24 22:01N 53°08' E 001°17'816.5
2017-Apr-24 21:31N 53°14' E 001°08'3416.3
2017-Apr-24 19:26N 53°30' E 000°18'716.2
2017-Apr-24 18:59N 53°33' E 000°07'918.9
2017-Apr-24 18:31N 53°37' W 000°06'816.1
2017-Apr-24 18:00N 53°43' W 000°15'1 2.4
2017-Apr-24 17:30N 53°44' W 000°16'0 0.2
2017-Apr-24 17:00N 53°45' W 000°16'0 0.0
2017-Apr-24 16:29N 53°45' W 000°16'0 0.0
2017-Apr-24 15:59N 53°45' W 000°16'0 0.0
2017-Apr-24 15:29N 53°45' W 000°16'0 0.0
2017-Apr-24 14:59N 53°45' W 000°16'0 0.0
2017-Apr-24 14:29N 53°45' W 000°16'0 0.0
2017-Apr-24 13:28N 53°45' W 000°16'0 0.0
2017-Apr-24 12:58N 53°45' W 000°16'0 0.0
2017-Apr-24 12:28N 53°45' W 000°16'0 0.0
2017-Apr-24 12:00N 53°45' W 000°16'0 0.0
2017-Apr-24 11:30N 53°45' W 000°16'0 0.0
2017-Apr-24 11:00N 53°45' W 000°16'0 0.0
2017-Apr-24 10:30N 53°45' W 000°16'0 0.0
2017-Apr-24 10:00N 53°45' W 000°16'0 0.0
2017-Apr-24 09:29N 53°45' W 000°16'0 0.0
2017-Apr-24 08:59N 53°45' W 000°16'0 0.0
2017-Apr-24 08:29N 53°45' W 000°16'0 0.0
2017-Apr-24 07:59N 53°45' W 000°16'0 0.0
2017-Apr-24 07:30N 53°45' W 000°16'0 0.2
2017-Apr-24 07:00N 53°44' W 000°16'0 0.3
2017-Apr-24 06:30N 53°44' W 000°17'510.6
2017-Apr-24 06:00N 53°40' W 000°12'714.1
2017-Apr-24 05:30N 53°36' W 000°02'814.9
2017-Apr-24 04:58N 53°33' E 000°10'3215.0
2017-Apr-24 02:48N 53°20' E 001°00'414.9
2017-Apr-24 02:30N 53°16' E 001°05'712.7
2017-Apr-24 01:58N 53°11' E 001°13'612.0
2017-Apr-24 01:31N 53°07' E 001°19'612.9
2017-Apr-24 01:01N 53°02' E 001°26'613.0
2017-Apr-24 00:31N 52°58' E 001°34'816.3
2017-Apr-24 00:00N 52°52' E 001°43'816.7
2017-Apr-23 23:30N 52°48' E 001°56'815.0
2017-Apr-23 23:00N 52°41' E 002°01'917.1
2017-Apr-23 22:30N 52°34' E 002°07'4715.1
2017-Apr-23 19:22N 51°50' E 002°38'514.5
2017-Apr-23 19:00N 51°45' E 002°41'714.3
2017-Apr-23 18:30N 51°39' E 002°44'714.7
2017-Apr-23 18:00N 51°32' E 002°51'714.9
2017-Apr-23 17:30N 51°27' E 002°58'815.6
2017-Apr-23 17:00N 51°23' E 003°10'3 5.9
2017-Apr-23 16:30N 51°20' E 003°11'0 0.0
2017-Apr-23 16:00N 51°20' E 003°11'0 0.0
2017-Apr-23 15:30N 51°20' E 003°11'0 0.0
2017-Apr-23 15:00N 51°20' E 003°11'0 0.0
2017-Apr-23 14:00N 51°20' E 003°11'0 0.0
2017-Apr-23 13:29N 51°20' E 003°11'0 0.0
2017-Apr-23 12:59N 51°20' E 003°11'0 0.0
2017-Apr-23 12:29N 51°20' E 003°11'0 0.0
2017-Apr-23 11:59N 51°20' E 003°11'0 0.0
2017-Apr-23 11:29N 51°20' E 003°11'0 0.0
2017-Apr-23 10:58N 51°20' E 003°11'0 0.0
2017-Apr-23 10:28N 51°20' E 003°11'0 0.0
2017-Apr-23 09:58N 51°20' E 003°11'0 0.0
2017-Apr-23 09:28N 51°20' E 003°11'0 0.0
2017-Apr-23 09:00N 51°20' E 003°11'0 0.0
2017-Apr-23 08:30N 51°20' E 003°11'0 0.0
2017-Apr-23 08:00N 51°20' E 003°11'0 0.0
2017-Apr-23 07:30N 51°20' E 003°11'1 1.9
2017-Apr-23 07:00N 51°21' E 003°12'714.7
2017-Apr-23 06:30N 51°25' E 003°02'714.8
2017-Apr-23 06:00N 51°30' E 002°54'815.0
2017-Apr-23 05:30N 51°36' E 002°46'6014.9
2017-Apr-23 01:27N 52°31' E 002°08'714.8
2017-Apr-23 01:00N 52°37' E 002°03'714.6
2017-Apr-23 00:30N 52°44' E 001°57'714.5
2017-Apr-23 00:00N 52°49' E 001°49'714.8
2017-Apr-22 23:30N 52°54' E 001°39'714.7
2017-Apr-22 23:00N 52°59' E 001°31'715.0
2017-Apr-22 22:30N 53°05' E 001°23'815.2
2017-Apr-22 22:00N 53°11' E 001°15'815.1
2017-Apr-22 21:30N 53°16' E 001°06'815.1
2017-Apr-22 20:59N 53°21' E 000°56'2515.5
2017-Apr-22 19:23N 53°31' E 000°18'916.0
2017-Apr-22 18:50N 53°34' E 000°04'617.5
2017-Apr-22 18:30N 53°36' W 000°05'714.0
2017-Apr-22 18:00N 53°41' W 000°13'4 7.6
2017-Apr-22 17:30N 53°44' W 000°16'0 0.2
2017-Apr-22 17:00N 53°45' W 000°16'0 0.0
2017-Apr-22 16:30N 53°45' W 000°16'0 0.0
2017-Apr-22 15:59N 53°45' W 000°16'0 0.0
2017-Apr-22 15:29N 53°45' W 000°16'0 0.0
2017-Apr-22 14:59N 53°45' W 000°16'0 0.0
2017-Apr-22 14:29N 53°45' W 000°16'0 0.0
2017-Apr-22 13:28N 53°45' W 000°16'0 0.0
2017-Apr-22 12:58N 53°45' W 000°16'0 0.0
2017-Apr-22 12:28N 53°45' W 000°16'0 0.0
2017-Apr-22 11:58N 53°45' W 000°16'0 0.0
2017-Apr-22 11:30N 53°45' W 000°16'0 0.0
2017-Apr-22 11:00N 53°45' W 000°16'0 0.0
2017-Apr-22 10:30N 53°45' W 000°16'0 0.0
2017-Apr-22 10:00N 53°45' W 000°16'0 0.0
2017-Apr-22 09:30N 53°45' W 000°16'0 0.0
2017-Apr-22 08:59N 53°45' W 000°16'0 0.0
2017-Apr-22 08:29N 53°45' W 000°16'0 0.0
2017-Apr-22 08:00N 53°45' W 000°16'0 0.2
2017-Apr-22 07:30N 53°44' W 000°16'0 0.4
2017-Apr-22 07:00N 53°44' W 000°16'4 7.6
2017-Apr-22 06:30N 53°41' W 000°13'510.3
2017-Apr-22 06:00N 53°37' W 000°07'713.4
2017-Apr-22 05:30N 53°35' E 000°03'713.3
2017-Apr-22 05:00N 53°33' E 000°14'3414.2
2017-Apr-22 02:37N 53°17' E 001°04'214.2
2017-Apr-22 02:30N 53°16' E 001°06'714.5
2017-Apr-22 02:00N 53°11' E 001°14'714.9
2017-Apr-22 01:30N 53°05' E 001°22'816.1
2017-Apr-22 01:00N 52°59' E 001°31'918.2
2017-Apr-22 00:30N 52°52' E 001°41'918.7
2017-Apr-22 00:01N 52°46' E 001°53'918.9
2017-Apr-21 23:30N 52°38' E 002°02'4418.6
2017-Apr-21 21:09N 51°59' E 002°32'318.2
2017-Apr-21 21:00N 51°56' E 002°34'918.2
2017-Apr-21 20:30N 51°48' E 002°40'918.1
2017-Apr-21 20:01N 51°39' E 002°44'917.8
2017-Apr-21 19:31N 51°32' E 002°52'917.5
2017-Apr-21 19:01N 51°25' E 003°01'815.8
2017-Apr-21 18:30N 51°21' E 003°12'1 2.2
2017-Apr-21 18:00N 51°20' E 003°11'0 0.0
2017-Apr-21 17:30N 51°20' E 003°11'0 0.0
2017-Apr-21 17:00N 51°20' E 003°11'0 0.0
2017-Apr-21 16:29N 51°20' E 003°11'0 0.0
2017-Apr-21 15:59N 51°20' E 003°11'0 0.0
2017-Apr-21 15:29N 51°20' E 003°11'0 0.0
2017-Apr-21 14:58N 51°20' E 003°11'0 0.0
2017-Apr-21 14:28N 51°20' E 003°11'0 0.0
2017-Apr-21 13:28N 51°20' E 003°11'0 0.0
2017-Apr-21 12:58N 51°20' E 003°11'0 0.0
2017-Apr-21 12:30N 51°20' E 003°11'0 0.0
2017-Apr-21 12:00N 51°20' E 003°11'0 0.0
2017-Apr-21 11:30N 51°20' E 003°11'0 0.0
2017-Apr-21 11:00N 51°20' E 003°11'0 0.0
2017-Apr-21 10:30N 51°20' E 003°11'0 0.0
2017-Apr-21 09:59N 51°20' E 003°11'0 0.0
2017-Apr-21 09:29N 51°20' E 003°11'0 0.0
2017-Apr-21 08:59N 51°20' E 003°11'0 0.0
2017-Apr-21 08:29N 51°20' E 003°11'0 0.0
2017-Apr-21 07:55N 51°20' E 003°11'0 0.0
2017-Apr-21 07:28N 51°20' E 003°11'0 0.0
2017-Apr-21 06:58N 51°20' E 003°11'1 2.9
2017-Apr-21 06:31N 51°22' E 003°12'816.6
2017-Apr-21 06:01N 51°26' E 002°60'816.0
2017-Apr-21 05:30N 51°32' E 002°52'815.8
2017-Apr-21 05:01N 51°38' E 002°44'915.9
2017-Apr-21 04:25N 51°47' E 002°39'4616.4
2017-Apr-21 01:37N 52°29' E 002°10'216.8
2017-Apr-21 01:30N 52°31' E 002°09'816.5
2017-Apr-21 01:00N 52°38' E 002°02'816.1
2017-Apr-21 00:30N 52°45' E 001°55'816.8
2017-Apr-21 00:00N 52°50' E 001°43'816.9
2017-Apr-20 23:30N 52°54' E 001°32'816.8
2017-Apr-20 23:00N 52°58' E 001°19'816.5
2017-Apr-20 22:30N 53°01' E 001°07'816.4
2017-Apr-20 22:00N 53°07' E 000°57'3216.3
2017-Apr-20 20:03N 53°30' E 000°20'115.9
2017-Apr-20 19:59N 53°31' E 000°18'715.4
2017-Apr-20 19:30N 53°33' E 000°07'815.9
2017-Apr-20 19:00N 53°37' W 000°06'612.3
2017-Apr-20 18:30N 53°41' W 000°13'4 7.9
2017-Apr-20 18:00N 53°44' W 000°16'0 0.3
2017-Apr-20 17:30N 53°45' W 000°16'0 0.3
2017-Apr-20 17:00N 53°45' W 000°16'0 0.0
2017-Apr-20 16:30N 53°45' W 000°16'0 0.0
2017-Apr-20 16:00N 53°45' W 000°16'0 0.0
2017-Apr-20 15:29N 53°45' W 000°16'0 0.0
2017-Apr-20 14:59N 53°45' W 000°16'  

Dump ship's entire track history